Time;durP1;ratioP1;P1;durP2;ratioP2;P2;SDS_P1;SDS_P2;PMS_P1;PMS_P2;Temp;Humidity;BMP_temperature;BMP_pressure;BME280_temperature;BME280_humidity;BME280_pressure;Samples;Min_cycle;Max_cycle;Signal;HPM_P1;HPM_P2
2022/03/27 00:02:24;;;;;;;39.38;13.18;;;;;;;6.97;64.60;101977.66;4991295;28;20062;-45
2022/03/27 00:04:51;;;;;;;40.67;13.68;;;;;;;6.93;63.70;101972.34;4995428;28;20045;-41
2022/03/27 00:07:17;;;;;;;41.50;13.93;;;;;;;6.90;64.76;101972.25;5004182;28;20556;-43
2022/03/27 00:09:44;;;;;;;39.38;14.30;;;;;;;6.86;63.64;101972.03;4993508;28;20045;-44
2022/03/27 00:12:11;;;;;;;40.67;14.55;;;;;;;6.82;64.71;101973.59;5002119;28;20050;-40
2022/03/27 00:14:37;;;;;;;40.58;14.32;;;;;;;6.80;64.28;101970.06;4988299;28;20046;-40
2022/03/27 00:17:04;;;;;;;47.35;14.48;;;;;;;6.75;65.30;101976.72;4989507;28;20788;-41
2022/03/27 00:19:31;;;;;;;39.80;14.15;;;;;;;6.75;65.41;101974.16;4990165;28;20073;-41
2022/03/27 00:21:57;;;;;;;40.95;14.60;;;;;;;6.74;64.29;101972.38;4989767;28;20081;-44
2022/03/27 00:24:24;;;;;;;36.53;13.80;;;;;;;6.73;63.87;101978.34;4991965;28;20050;-44
2022/03/27 00:26:50;;;;;;;46.03;14.45;;;;;;;6.71;64.60;101975.69;4990133;28;20469;-45
2022/03/27 00:29:18;;;;;;;40.85;13.65;;;;;;;6.69;64.46;101978.19;4991691;28;20065;-43
2022/03/27 00:31:44;;;;;;;40.92;14.63;;;;;;;6.67;64.56;101974.69;4999553;28;20549;-42
2022/03/27 00:34:11;;;;;;;39.30;14.95;;;;;;;6.64;65.19;101964.25;4988838;28;20506;-44
2022/03/27 00:36:38;;;;;;;43.47;13.52;;;;;;;6.61;64.71;101974.41;4990713;28;20054;-40
2022/03/27 00:39:05;;;;;;;39.85;14.63;;;;;;;6.59;63.63;101976.06;4984707;28;20061;-44
2022/03/27 00:41:31;;;;;;;35.80;13.73;;;;;;;6.55;65.01;101974.13;4985701;28;20054;-42
2022/03/27 00:43:58;;;;;;;36.72;12.88;;;;;;;6.54;63.30;101977.50;4989708;28;20062;-42
2022/03/27 00:46:25;;;;;;;41.05;14.82;;;;;;;6.49;64.82;101971.28;4982078;28;20061;-42
2022/03/27 00:48:51;;;;;;;37.00;13.55;;;;;;;6.47;64.98;101970.31;4998802;28;20077;-44
2022/03/27 00:51:18;;;;;;;45.60;15.60;;;;;;;6.41;64.50;101964.09;5002281;28;20045;-46
2022/03/27 00:53:45;;;;;;;42.35;15.27;;;;;;;6.41;64.59;101971.81;5003496;28;20099;-42
2022/03/27 00:56:11;;;;;;;41.00;13.88;;;;;;;6.37;64.94;101972.50;5000027;28;20053;-43
2022/03/27 00:58:38;;;;;;;46.95;15.80;;;;;;;6.35;63.84;101968.94;4996884;28;20530;-41
2022/03/27 01:01:16;;;;;;;47.83;15.43;;;;;;;6.31;64.87;101972.19;4989516;28;20054;-43
2022/03/27 01:03:44;;;;;;;41.35;14.60;;;;;;;6.29;64.07;101976.41;4997315;28;20922;-46
2022/03/27 01:06:27;;;;;;;43.00;13.32;;;;;;;6.25;64.21;101974.50;4990850;28;20054;-42
2022/03/27 01:11:41;;;;;;;43.63;14.55;;;;;;;6.25;65.12;101977.09;4984480;28;20055;-43
2022/03/27 01:14:09;;;;;;;39.60;13.90;;;;;;;6.23;64.48;101973.53;4988436;28;20058;-43
2022/03/27 01:16:47;;;;;;;41.75;14.77;;;;;;;6.22;64.37;101969.22;4988803;28;20417;-42
2022/03/27 01:19:15;;;;;;;43.40;14.82;;;;;;;6.18;64.81;101968.19;4987079;28;20050;-44
2022/03/27 01:21:44;;;;;;;39.72;13.85;;;;;;;6.16;65.22;101973.28;4987939;28;20052;-44
2022/03/27 01:24:14;;;;;;;41.08;14.23;;;;;;;6.15;64.53;101968.06;4985283;28;20046;-46
2022/03/27 01:26:40;;;;;;;43.00;14.02;;;;;;;6.14;65.43;101962.03;4982737;28;20054;-42
2022/03/27 01:29:08;;;;;;;44.13;15.18;;;;;;;6.13;64.43;101960.25;4984868;28;20051;-42
2022/03/27 01:31:35;;;;;;;45.45;16.60;;;;;;;6.12;65.01;101958.47;4986260;28;20050;-42
2022/03/27 01:34:03;;;;;;;44.88;14.23;;;;;;;6.11;65.38;101950.72;4984712;28;20061;-40
2022/03/27 01:36:34;;;;;;;42.95;13.98;;;;;;;6.08;64.23;101943.72;4985234;28;20050;-43
2022/03/27 01:39:06;;;;;;;40.80;13.65;;;;;;;6.06;64.99;101937.63;4986610;28;20052;-47
2022/03/27 01:41:33;;;;;;;42.10;14.27;;;;;;;6.06;64.14;101945.34;4985312;28;20053;-42
2022/03/27 01:44:00;;;;;;;41.65;15.05;;;;;;;6.04;64.75;101941.81;4985114;28;20105;-44
2022/03/27 01:46:38;;;;;;;59.55;16.55;;;;;;;6.00;64.66;101948.47;4983759;28;20077;-42
2022/03/27 01:49:08;;;;;;;76.20;14.05;;;;;;;6.03;65.03;101947.75;4984896;28;20058;-45
2022/03/27 01:51:37;;;;;;;47.75;14.73;;;;;;;6.04;64.92;101936.66;4986310;28;20050;-42
2022/03/27 01:54:04;;;;;;;100.00;16.20;;;;;;;6.06;64.72;101937.63;4986895;28;20089;-41
2022/03/27 01:56:32;;;;;;;94.15;15.85;;;;;;;6.06;65.07;101942.78;4984618;28;20105;-46
2022/03/27 01:59:00;;;;;;;65.45;16.30;;;;;;;6.07;65.34;101944.53;4983254;28;20050;-45
2022/03/27 02:01:26;;;;;;;153.40;15.73;;;;;;;6.07;65.27;101941.06;4984429;28;20050;-43
2022/03/27 02:03:55;;;;;;;199.10;16.70;;;;;;;6.06;65.44;101932.47;4986066;28;20112;-48
2022/03/27 02:06:23;;;;;;;222.20;15.15;;;;;;;6.00;64.79;101927.00;4983501;28;20046;-45
2022/03/27 02:08:51;;;;;;;89.88;13.05;;;;;;;5.97;64.74;101932.00;4981425;28;20052;-43
2022/03/27 02:11:18;;;;;;;119.80;13.02;;;;;;;5.96;65.81;101932.81;4984813;28;20042;-42
2022/03/27 02:13:45;;;;;;;120.53;14.32;;;;;;;5.95;65.71;101926.81;4982752;28;21706;-42
2022/03/27 02:16:12;;;;;;;126.60;14.77;;;;;;;5.94;64.93;101927.59;4985522;28;20050;-46
2022/03/27 02:18:41;;;;;;;147.20;16.20;;;;;;;5.95;65.16;101918.22;4983960;28;20137;-41
2022/03/27 02:21:09;;;;;;;124.55;15.05;;;;;;;5.95;65.14;101929.41;4984843;28;20107;-49
2022/03/27 02:23:36;;;;;;;203.75;16.02;;;;;;;5.94;65.02;101921.59;4987453;28;20498;-40
2022/03/27 02:26:03;;;;;;;136.45;14.68;;;;;;;5.92;66.05;101919.81;4984038;28;20050;-41
2022/03/27 02:28:30;;;;;;;112.40;14.82;;;;;;;5.91;65.76;101923.19;4984057;28;20720;-43
2022/03/27 02:30:57;;;;;;;79.00;13.35;;;;;;;5.91;66.12;101923.19;4983691;28;20046;-44
2022/03/27 02:33:24;;;;;;;96.07;14.80;;;;;;;5.91;65.20;101923.19;4985542;28;20572;-41
2022/03/27 02:35:51;;;;;;;138.95;15.10;;;;;;;5.91;65.48;101922.31;4981254;28;20058;-46
2022/03/27 02:38:18;;;;;;;76.70;14.63;;;;;;;5.90;65.54;101913.72;4984429;28;20050;-45
2022/03/27 02:40:45;;;;;;;80.60;13.65;;;;;;;5.91;65.67;101918.06;4984919;28;20128;-43
2022/03/27 02:43:12;;;;;;;64.68;12.68;;;;;;;5.90;65.05;101908.59;4982890;28;20038;-41
2022/03/27 02:45:39;;;;;;;105.32;12.05;;;;;;;5.89;66.01;101914.56;4985691;28;20364;-49
2022/03/27 02:48:06;;;;;;;112.43;12.70;;;;;;;5.88;65.21;101915.34;4984854;28;20058;-42
2022/03/27 02:50:36;;;;;;;113.75;13.02;;;;;;;5.85;65.84;101906.63;4984734;28;20671;-44
2022/03/27 02:53:03;;;;;;;;;;;;;;;5.72;66.17;101910.28;4982450;28;20505;-45
2022/03/27 02:55:30;;;;;;;92.20;12.10;;;;;;;5.76;65.52;101901.91;4984735;28;19926;-44
2022/03/27 02:57:57;;;;;;;102.20;11.50;;;;;;;5.74;65.78;101908.69;4983647;28;20050;-45
2022/03/27 03:00:25;;;;;;;93.22;11.82;;;;;;;5.69;65.93;101907.56;4980795;28;20124;-42
2022/03/27 03:02:53;;;;;;;108.03;12.30;;;;;;;5.66;65.50;101911.78;4982939;28;20038;-46
2022/03/27 03:05:21;;;;;;;60.83;11.38;;;;;;;5.66;65.32;101911.78;4983805;28;20081;-43
2022/03/27 03:07:49;;;;;;;85.10;12.93;;;;;;;5.65;65.58;101909.13;4982008;28;20172;-43
2022/03/27 03:10:16;;;;;;;73.88;12.60;;;;;;;5.64;65.95;101908.22;4980209;28;20054;-45
2022/03/27 03:12:44;;;;;;;63.78;12.85;;;;;;;5.63;65.54;101898.78;4977076;28;20042;-48
2022/03/27 03:15:11;;;;;;;138.25;21.83;;;;;;;5.61;65.83;101902.06;4983410;28;21558;-41
2022/03/27 03:17:38;;;;;;;101.28;22.63;;;;;;;5.56;65.97;101899.28;4982725;28;20097;-47
2022/03/27 03:20:05;;;;;;;82.82;19.55;;;;;;;5.55;65.66;101902.66;4981783;28;20046;-42
2022/03/27 03:22:32;;;;;;;107.93;20.20;;;;;;;5.49;66.09;101900.69;4986065;28;20144;-42
2022/03/27 03:24:59;;;;;;;142.32;16.25;;;;;;;5.49;65.92;101904.94;4983527;28;20057;-45
2022/03/27 03:27:25;;;;;;;79.15;15.50;;;;;;;5.49;65.42;101907.50;4980773;28;20048;-45
2022/03/27 03:29:52;;;;;;;67.43;12.25;;;;;;;5.49;65.74;101897.22;4979147;28;20104;-44
2022/03/27 03:32:20;;;;;;;50.22;11.48;;;;;;;5.49;65.46;101900.69;4981663;28;20548;-45
2022/03/27 03:34:47;;;;;;;71.43;12.02;;;;;;;5.49;66.28;101892.97;4981210;28;20057;-47
2022/03/27 03:37:14;;;;;;;48.50;10.85;;;;;;;5.48;66.26;101893.78;4982561;28;20084;-47
2022/03/27 03:39:40;;;;;;;81.57;11.10;;;;;;;5.49;66.06;101894.66;4981246;28;20117;-42
2022/03/27 03:42:07;;;;;;;35.33;9.75;;;;;;;5.50;65.42;101904.13;4982897;28;20454;-47
2022/03/27 03:44:33;;;;;;;88.97;11.13;;;;;;;5.49;65.45;101902.38;4982643;28;20116;-42
2022/03/27 03:47:00;;;;;;;67.90;9.80;;;;;;;5.49;65.28;101898.13;4985417;28;20646;-49
2022/03/27 03:49:27;;;;;;;67.90;10.10;;;;;;;5.49;65.14;101897.22;4987742;28;20080;-47
2022/03/27 03:51:53;;;;;;;84.57;10.52;;;;;;;5.48;65.04;101896.34;4991005;28;20050;-43
2022/03/27 03:54:20;;;;;;;71.90;10.50;;;;;;;5.44;66.00;101898.69;4990051;28;20043;-49
2022/03/27 03:56:47;;;;;;;66.45;9.48;;;;;;;5.40;65.48;101901.13;4988107;28;20454;-44
2022/03/27 03:59:13;;;;;;;94.15;9.60;;;;;;;5.39;65.55;101901.03;4986148;28;20050;-43
2022/03/27 04:01:57;;;;;;;78.03;9.98;;;;;;;5.37;65.41;101893.25;4986799;28;20050;-45
2022/03/27 04:04:24;;;;;;;75.20;10.27;;;;;;;5.34;66.02;101894.81;4988466;28;20093;-46
2022/03/27 04:06:51;;;;;;;72.07;9.25;;;;;;;5.32;65.88;101894.72;4988636;28;20054;-41
2022/03/27 04:09:20;;;;;;;27.27;9.10;;;;;;;5.29;65.68;101889.44;4980996;28;20109;-43
2022/03/27 04:11:47;;;;;;;24.63;9.57;;;;;;;5.24;65.94;101889.19;4984170;28;20138;-42
2022/03/27 04:14:14;;;;;;;27.10;9.45;;;;;;;5.20;65.68;101883.84;4988034;28;20069;-43
2022/03/27 04:16:40;;;;;;;26.08;9.30;;;;;;;5.14;65.49;101879.28;4989238;28;20142;-43
2022/03/27 04:19:07;;;;;;;22.15;8.45;;;;;;;5.10;66.28;101879.94;4985529;28;20054;-42
2022/03/27 04:21:34;;;;;;;23.63;8.10;;;;;;;5.06;66.18;101876.34;4989380;28;20525;-44
2022/03/27 04:24:00;;;;;;;22.25;8.57;;;;;;;5.04;66.30;101872.81;4988519;28;20130;-45
2022/03/27 04:26:31;;;;;;;21.80;8.68;;;;;;;5.04;65.58;101877.97;4989015;28;20074;-43
2022/03/27 04:28:58;;;;;;;27.23;8.40;;;;;;;5.01;65.87;101872.66;4984886;28;20054;-41
2022/03/27 04:31:24;;;;;;;31.75;7.95;;;;;;;4.98;66.26;101877.66;4984583;28;20073;-43
2022/03/27 04:33:51;;;;;;;21.05;7.55;;;;;;;4.94;66.37;101880.88;4987566;28;20042;-44
2022/03/27 04:36:18;;;;;;;19.90;7.85;;;;;;;4.88;65.85;101879.75;4988585;28;20050;-44
2022/03/27 04:38:44;;;;;;;23.02;7.70;;;;;;;4.85;65.56;101877.03;4987402;28;20050;-44
2022/03/27 04:41:11;;;;;;;22.00;7.78;;;;;;;4.84;66.18;101880.41;4986875;28;20109;-45
2022/03/27 04:43:38;;;;;;;20.20;7.80;;;;;;;4.84;65.90;101882.97;4984398;28;20094;-42
2022/03/27 04:46:04;;;;;;;21.65;8.30;;;;;;;4.84;66.16;101875.28;4987279;28;20062;-42
2022/03/27 04:48:31;;;;;;;18.63;7.70;;;;;;;4.83;66.17;101873.50;4986641;28;20042;-46
2022/03/27 04:50:58;;;;;;;21.92;8.00;;;;;;;4.83;65.95;101872.63;4984914;28;20055;-43
2022/03/27 04:53:24;;;;;;;23.27;8.48;;;;;;;4.84;66.29;101875.28;4984619;28;20051;-41
2022/03/27 04:55:51;;;;;;;21.30;8.27;;;;;;;4.86;65.63;101875.31;4989085;28;20665;-42
2022/03/27 04:58:18;;;;;;;23.98;8.43;;;;;;;4.89;66.07;101878.06;4987143;28;20055;-43
2022/03/27 05:00:45;;;;;;;23.05;8.43;;;;;;;4.93;66.32;101881.69;4987009;28;20046;-44
2022/03/27 05:03:12;;;;;;;29.58;8.07;;;;;;;4.93;66.36;101879.13;4985708;28;20039;-44
2022/03/27 05:05:40;;;;;;;25.92;7.40;;;;;;;4.92;65.98;101885.03;4988249;28;20062;-45
2022/03/27 05:08:07;;;;;;;29.60;8.13;;;;;;;4.89;66.45;101876.38;4987679;28;20050;-47
2022/03/27 05:10:34;;;;;;;18.60;8.23;;;;;;;4.93;66.52;101884.25;4985559;28;20104;-47
2022/03/27 05:13:01;;;;;;;21.20;8.25;;;;;;;4.96;65.68;101894.69;4985893;28;20046;-43
2022/03/27 05:15:27;;;;;;;21.45;7.40;;;;;;;4.97;65.91;101886.16;4984534;28;20662;-45
2022/03/27 05:17:57;;;;;;;21.15;8.15;;;;;;;4.98;65.86;101883.66;4986892;28;20050;-41
2022/03/27 05:20:25;;;;;;;20.80;8.45;;;;;;;5.03;65.86;101891.59;4987729;28;20045;-42
2022/03/27 05:22:52;;;;;;;20.00;7.90;;;;;;;5.06;65.87;101876.34;4986288;28;20556;-44
2022/03/27 05:25:20;;;;;;;23.45;8.70;;;;;;;5.10;65.93;101885.09;4987952;28;20050;-48
2022/03/27 05:27:50;;;;;;;20.38;7.82;;;;;;;5.15;66.32;101886.19;4987494;28;20454;-40
2022/03/27 05:30:19;;;;;;;23.83;8.70;;;;;;;5.21;65.70;101891.63;4983537;28;20058;-46
2022/03/27 05:32:46;;;;;;;28.77;8.90;;;;;;;5.27;66.29;101893.63;4983712;28;20093;-45
2022/03/27 05:35:13;;;;;;;29.13;8.98;;;;;;;5.30;66.57;101891.19;4985063;28;20051;-45
2022/03/27 05:37:42;;;;;;;21.70;7.30;;;;;;;5.34;66.38;101887.94;4986683;28;20042;-42
2022/03/27 05:40:12;;;;;;;24.30;8.85;;;;;;;5.37;66.34;101888.09;4983870;28;20050;-43
2022/03/27 05:42:39;;;;;;;30.50;8.88;;;;;;;5.42;66.64;101892.59;4985585;28;20461;-43
2022/03/27 05:45:07;;;;;;;31.90;9.15;;;;;;;5.47;65.90;101896.28;4980828;28;20050;-44
2022/03/27 05:47:35;;;;;;;28.25;8.65;;;;;;;5.50;66.77;101893.84;4985275;28;20100;-43
2022/03/27 05:50:02;;;;;;;26.20;8.80;;;;;;;5.51;65.94;101895.63;4984747;28;20058;-45
2022/03/27 05:52:28;;;;;;;26.02;8.55;;;;;;;5.55;66.37;101892.38;4986820;28;20054;-43
2022/03/27 05:54:56;;;;;;;26.30;8.35;;;;;;;5.57;66.92;101903.59;4987569;28;20337;-41
2022/03/27 05:57:23;;;;;;;33.70;9.25;;;;;;;5.58;66.08;101900.25;4982266;28;20042;-47
2022/03/27 05:59:50;;;;;;;43.22;9.20;;;;;;;5.61;66.51;101902.94;4983116;28;20448;-41
2022/03/27 06:02:16;;;;;;;33.67;8.80;;;;;;;5.63;66.50;101896.19;4979074;28;20101;-43
2022/03/27 06:04:43;;;;;;;28.38;8.73;;;;;;;5.65;66.27;101894.56;4985747;28;20038;-47
2022/03/27 06:07:10;;;;;;;30.10;9.32;;;;;;;5.67;66.24;101894.63;4984585;28;20046;-47
2022/03/27 06:09:36;;;;;;;29.00;9.45;;;;;;;5.71;66.75;101898.25;4984751;28;20430;-48
2022/03/27 06:12:04;;;;;;;28.85;9.07;;;;;;;5.73;67.27;101892.38;4984461;28;20054;-44
2022/03/27 06:14:31;;;;;;;40.63;9.18;;;;;;;5.75;67.02;101901.03;4984974;28;20043;-45
2022/03/27 06:16:58;;;;;;;37.83;9.55;;;;;;;5.75;66.63;101895.00;4986117;28;20062;-41
2022/03/27 06:19:26;;;;;;;33.30;8.90;;;;;;;5.79;67.37;101892.66;4981127;28;20521;-46
2022/03/27 06:21:52;;;;;;;27.95;9.20;;;;;;;5.83;66.64;101888.53;4985903;28;20415;-44
2022/03/27 06:24:19;;;;;;;49.70;11.85;;;;;;;5.87;67.42;101899.84;4986336;28;20101;-45
2022/03/27 06:26:46;;;;;;;40.60;11.15;;;;;;;5.89;66.95;101893.09;4985089;28;20634;-42
2022/03/27 06:29:30;;;;;;;35.03;10.57;;;;;;;5.92;67.02;101894.09;4982057;28;20168;-43
2022/03/27 06:31:56;;;;;;;30.65;9.55;;;;;;;5.96;67.59;101901.97;4983877;28;20057;-42
2022/03/27 06:34:24;;;;;;;32.65;9.20;;;;;;;5.99;67.72;101897.84;4980877;28;20079;-43
2022/03/27 06:36:51;;;;;;;29.38;8.82;;;;;;;6.02;66.84;101895.41;4985256;28;20054;-43
2022/03/27 06:39:17;;;;;;;29.70;8.70;;;;;;;6.05;67.15;101894.72;4980487;28;20093;-44
2022/03/27 06:41:44;;;;;;;28.02;8.48;;;;;;;6.08;67.61;101901.69;4985557;28;20046;-44
2022/03/27 06:44:13;;;;;;;32.05;8.00;;;;;;;6.11;67.12;101900.13;4983538;28;20081;-49
2022/03/27 06:46:40;;;;;;;38.58;8.23;;;;;;;6.15;68.24;101902.03;4983817;28;20105;-42
2022/03/27 06:49:07;;;;;;;29.45;7.72;;;;;;;6.17;67.46;101903.00;4982723;28;20054;-45
2022/03/27 06:51:34;;;;;;;41.17;7.65;;;;;;;6.23;67.56;101909.22;4982999;28;20494;-46
2022/03/27 06:54:00;;;;;;;33.55;8.27;;;;;;;6.27;67.87;101904.28;4980290;28;20050;-44
2022/03/27 06:56:27;;;;;;;40.55;7.65;;;;;;;6.32;67.60;101904.50;4984561;28;20050;-43
2022/03/27 06:58:55;;;;;;;29.15;6.70;;;;;;;6.37;68.01;101899.53;4986743;28;20057;-46
2022/03/27 07:04:10;;;;;;;35.20;6.93;;;;;;;6.46;67.53;101899.97;4985553;28;20070;-44
2022/03/27 07:06:38;;;;;;;21.83;6.05;;;;;;;6.51;67.46;101901.03;4980315;28;20054;-46
2022/03/27 07:09:05;;;;;;;41.55;7.55;;;;;;;6.56;67.70;101898.66;4980863;28;20050;-46
2022/03/27 07:11:49;;;;;;;33.33;6.85;;;;;;;6.58;67.74;101897.03;4984904;28;20057;-45
2022/03/27 07:14:16;;;;;;;34.78;6.07;;;;;;;6.62;68.43;101898.06;4985131;28;20054;-45
2022/03/27 07:16:43;;;;;;;40.38;6.45;;;;;;;6.63;68.37;101900.69;4982006;28;20046;-41
2022/03/27 07:19:10;;;;;;;27.30;6.47;;;;;;;6.65;68.04;101886.19;4983769;28;20086;-46
2022/03/27 07:21:37;;;;;;;42.15;7.05;;;;;;;6.66;67.68;101889.66;4985910;28;20049;-47
2022/03/27 07:24:04;;;;;;;25.33;6.80;;;;;;;6.69;68.23;101893.22;4987151;28;20042;-44
2022/03/27 07:26:31;;;;;;;55.78;8.00;;;;;;;6.75;69.03;101894.31;4989465;28;20752;-49
2022/03/27 07:28:58;;;;;;;38.60;6.40;;;;;;;6.78;68.73;101895.31;4990434;28;20086;-48
2022/03/27 07:31:25;;;;;;;33.83;6.88;;;;;;;6.81;68.13;101895.47;4988506;28;20054;-43
2022/03/27 07:33:55;;;;;;;30.52;6.65;;;;;;;6.88;68.99;101896.59;4988651;28;20043;-42
2022/03/27 07:36:22;;;;;;;38.38;6.90;;;;;;;6.88;69.21;101896.59;4986726;28;20039;-48
2022/03/27 07:38:49;;;;;;;33.53;7.72;;;;;;;6.93;68.61;101895.06;4986574;28;20105;-49
2022/03/27 07:41:16;;;;;;;38.35;7.03;;;;;;;6.98;67.70;101899.53;4989803;28;20101;-45
2022/03/27 07:43:42;;;;;;;35.10;7.63;;;;;;;7.03;69.41;101903.22;4986395;28;20058;-42
2022/03/27 07:46:09;;;;;;;34.40;6.28;;;;;;;7.04;69.84;101894.66;4990653;28;20092;-43
2022/03/27 07:48:36;;;;;;;41.95;7.45;;;;;;;7.07;69.06;101893.06;4989970;28;20050;-49
2022/03/27 07:51:04;;;;;;;34.20;6.80;;;;;;;7.13;69.28;101896.75;4989454;28;20737;-44
2022/03/27 07:53:30;;;;;;;31.38;7.40;;;;;;;7.20;68.24;101902.19;4989892;28;20046;-49
2022/03/27 07:55:57;;;;;;;29.17;6.95;;;;;;;7.21;69.36;101900.50;4987464;28;20591;-48
2022/03/27 07:58:23;;;;;;;29.27;6.97;;;;;;;7.25;68.63;101896.34;4989464;28;20097;-46
2022/03/27 08:00:50;;;;;;;41.78;6.93;;;;;;;7.31;68.80;101896.59;4987506;28;20136;-46
2022/03/27 08:03:17;;;;;;;35.60;5.47;;;;;;;7.36;68.83;101904.53;4985649;28;20050;-51
2022/03/27 08:05:44;;;;;;;30.42;7.18;;;;;;;7.39;69.59;101894.31;4987711;28;20050;-47
2022/03/27 08:08:10;;;;;;;33.35;7.00;;;;;;;7.45;69.76;101895.47;4989642;28;20042;-43
2022/03/27 08:10:37;;;;;;;25.17;7.30;;;;;;;7.54;69.31;101894.94;4986108;28;20069;-45
2022/03/27 08:13:04;;;;;;;22.25;6.18;;;;;;;7.61;69.61;101896.09;4988023;28;20058;-43
2022/03/27 08:15:30;;;;;;;25.15;5.95;;;;;;;7.67;69.96;101888.56;4985943;28;20050;-44
2022/03/27 08:17:57;;;;;;;23.63;5.38;;;;;;;7.74;71.06;101892.28;4988732;28;20053;-43
2022/03/27 08:20:25;;;;;;;22.85;6.13;;;;;;;7.84;70.46;101890.94;4983549;28;20073;-44
2022/03/27 08:22:52;;;;;;;20.48;5.93;;;;;;;7.94;70.42;101894.75;4960690;28;20050;-44
2022/03/27 08:28:08;;;;;;;17.42;6.20;;;;;;;8.07;69.86;101888.34;4988119;28;20585;-43
2022/03/27 08:30:35;;;;;;;22.58;6.50;;;;;;;8.16;70.51;101890.38;4987399;28;20496;-44
2022/03/27 08:33:03;;;;;;;21.02;6.35;;;;;;;8.23;70.47;101893.25;4986732;28;20050;-46
2022/03/27 08:35:30;;;;;;;21.17;6.22;;;;;;;8.29;70.74;101886.53;4988348;28;20509;-45
2022/03/27 08:37:56;;;;;;;22.15;6.25;;;;;;;8.35;70.39;101886.78;4985611;28;20115;-42
2022/03/27 08:40:23;;;;;;;19.58;6.13;;;;;;;8.45;70.00;101887.97;4986551;28;20046;-51
2022/03/27 08:42:50;;;;;;;18.88;6.35;;;;;;;8.55;71.22;101894.38;4984238;28;20135;-42
2022/03/27 08:45:17;;;;;;;12.25;4.40;;;;;;;8.56;70.95;101886.69;4984861;28;20053;-47
2022/03/27 08:47:44;;;;;;;18.25;6.32;;;;;;;8.61;70.71;101884.25;4982616;28;20054;-44
2022/03/27 08:50:26;;;;;;;17.15;6.28;;;;;;;8.62;72.74;101888.63;4984105;28;20047;-42
2022/03/27 08:52:59;;;;;;;16.63;5.85;;;;;;;8.67;71.67;101883.59;4982935;28;20113;-45
2022/03/27 08:56:03;;;;;;;15.90;5.55;;;;;;;8.71;72.67;101891.50;4986902;28;20054;-43
2022/03/27 08:58:39;;;;;;;18.67;5.95;;;;;;;8.77;72.95;101884.78;4985729;28;20100;-46
2022/03/27 09:01:08;;;;;;;19.77;5.93;;;;;;;8.80;71.46;101887.47;4984602;28;20465;-44
2022/03/27 09:03:35;;;;;;;18.05;6.47;;;;;;;8.89;71.02;101885.22;4985411;28;20047;-45
2022/03/27 09:06:02;;;;;;;18.27;6.18;;;;;;;8.93;71.50;101881.03;4985989;28;20042;-45
2022/03/27 09:08:46;;;;;;;20.55;5.78;;;;;;;9.00;71.67;101883.88;4982075;28;20049;-45
2022/03/27 09:11:16;;;;;;;22.38;6.13;;;;;;;9.00;71.24;101878.72;4988379;28;20054;-48
2022/03/27 09:13:47;;;;;;;25.42;6.63;;;;;;;9.04;72.21;101874.50;4987413;28;20107;-45
2022/03/27 09:16:14;;;;;;;21.20;6.65;;;;;;;9.05;71.44;101876.25;4987888;28;20104;-46
2022/03/27 09:18:48;;;;;;;22.35;7.15;;;;;;;9.08;71.69;101875.47;4983565;28;20046;-43
2022/03/27 09:21:17;;;;;;;25.20;6.95;;;;;;;9.15;71.29;101877.44;4988665;28;20057;-41
2022/03/27 09:23:44;;;;;;;23.42;7.32;;;;;;;9.21;71.86;101874.19;4983104;28;20053;-43
2022/03/27 09:26:17;;;;;;;23.38;6.63;;;;;;;9.29;71.50;101870.13;4985100;28;20133;-45
2022/03/27 09:28:46;;;;;;;24.55;7.65;;;;;;;9.39;71.13;101871.28;4988369;28;20050;-44
2022/03/27 09:36:29;;;;;;;26.17;9.05;;;;;;;9.69;71.80;101874.81;5024493;27;20409;-43
2022/03/27 09:39:16;;;;;;;22.17;7.25;;;;;;;9.70;70.79;101864.50;5005824;28;20508;-46
2022/03/27 09:41:58;;;;;;;20.92;7.38;;;;;;;9.77;71.00;101869.00;5053707;28;20049;-44
2022/03/27 09:44:36;;;;;;;25.63;7.03;;;;;;;9.81;71.11;101864.81;5023108;28;20042;-44
2022/03/27 09:52:20;;;;;;;17.20;6.38;;;;;;;10.04;70.72;101859.44;5052047;28;20406;-46
2022/03/27 10:02:49;;;;;;;13.40;4.93;;;;;;;10.41;69.94;101859.59;5034906;27;20751;-45
2022/03/27 10:05:17;;;;;;;13.65;5.28;;;;;;;10.54;70.19;101859.09;5023697;28;20104;-43
2022/03/27 10:07:47;;;;;;;14.40;4.72;;;;;;;10.78;70.22;101852.81;5024156;28;20049;-44
2022/03/27 10:10:17;;;;;;;11.00;4.07;;;;;;;10.97;69.94;101850.69;5023207;28;20405;-41
2022/03/27 10:12:46;;;;;;;9.15;3.42;;;;;;;11.04;68.88;101855.19;5021337;28;20136;-46
2022/03/27 10:15:19;;;;;;;8.20;4.15;;;;;;;11.03;68.89;101848.25;5006563;28;20091;-43
2022/03/27 10:18:09;;;;;;;10.82;4.57;;;;;;;11.03;68.88;101842.16;5026537;28;20088;-44
2022/03/27 10:20:37;;;;;;;10.38;3.90;;;;;;;11.11;68.98;101839.78;5024644;28;20054;-45
2022/03/27 10:23:07;;;;;;;10.48;3.90;;;;;;;11.14;68.76;101829.44;5024797;28;20609;-45
2022/03/27 10:28:13;;;;;;;13.82;5.63;;;;;;;11.27;67.27;101841.88;5056805;27;20389;-44
2022/03/27 10:30:41;;;;;;;13.82;6.30;;;;;;;11.37;67.74;101836.91;5026492;28;20041;-45
2022/03/27 10:33:10;;;;;;;13.38;5.97;;;;;;;11.46;67.53;101837.13;5025127;28;20049;-43
2022/03/27 10:36:17;;;;;;;12.43;5.72;;;;;;;11.52;67.83;101828.59;5017770;28;20087;-44
2022/03/27 10:39:25;;;;;;;12.48;5.80;;;;;;;11.62;66.81;101832.28;5022615;28;20046;-44
2022/03/27 10:52:30;;;;;;;6.80;2.60;;;;;;;11.89;66.51;101823.31;5056212;28;20391;-45
2022/03/27 10:54:59;;;;;;;6.63;2.65;;;;;;;11.91;66.72;101826.78;5009018;28;20482;-44
2022/03/27 10:57:37;;;;;;;7.72;2.78;;;;;;;11.91;65.38;101824.19;5009785;28;20127;-46
2022/03/27 11:00:06;;;;;;;6.05;2.55;;;;;;;11.93;66.23;101827.72;5009651;28;20092;-44
2022/03/27 11:10:59;;;;;;;4.78;2.75;;;;;;;11.92;65.25;101823.38;5046669;28;20414;-50
2022/03/27 11:18:42;;;;;;;3.35;1.63;;;;;;;11.79;64.62;101815.31;5063456;28;20381;-43
2022/03/27 11:21:11;;;;;;;3.00;1.55;;;;;;;11.85;65.57;101817.16;5016409;28;20049;-48
2022/03/27 11:23:40;;;;;;;2.40;0.98;;;;;;;11.89;65.66;101815.53;5009084;28;20053;-43
2022/03/27 17:01:28;;;;;;;11.52;5.32;;;;;;;14.13;58.24;101544.56;5032980;28;20376;-44
2022/03/27 17:03:56;;;;;;;10.57;5.45;;;;;;;14.09;57.56;101541.06;4986512;28;20054;-44
2022/03/27 17:06:23;;;;;;;11.48;5.57;;;;;;;14.08;57.31;101538.47;4982559;28;20053;-43
2022/03/27 17:08:49;;;;;;;10.98;5.15;;;;;;;14.05;57.90;101544.50;4982039;28;20084;-44
2022/03/27 17:11:16;;;;;;;12.13;5.07;;;;;;;14.00;57.30;101535.78;4987135;28;20603;-44
2022/03/27 17:13:43;;;;;;;10.85;5.53;;;;;;;13.98;57.75;101546.19;4982224;28;20051;-44
2022/03/27 17:16:11;;;;;;;10.38;5.43;;;;;;;13.98;57.96;101547.91;4976335;28;20054;-42
2022/03/27 17:18:38;;;;;;;10.10;4.88;;;;;;;13.93;57.83;101544.41;4968375;28;20059;-45
2022/03/27 17:21:25;;;;;;;11.75;5.55;;;;;;;13.90;57.21;101549.59;4997771;28;20984;-46
2022/03/27 17:23:52;;;;;;;10.70;5.30;;;;;;;13.83;57.48;101549.56;4993145;28;20050;-43
2022/03/27 17:26:19;;;;;;;12.77;4.93;;;;;;;13.81;58.00;101540.00;4995642;28;20058;-43
2022/03/27 17:28:46;;;;;;;8.95;4.65;;;;;;;13.80;58.57;101552.16;4995545;28;20141;-43
2022/03/27 17:31:13;;;;;;;10.75;5.75;;;;;;;13.76;58.69;101542.56;4993268;28;20039;-43
2022/03/27 17:33:39;;;;;;;9.30;4.35;;;;;;;13.72;58.69;101546.00;4989408;28;20058;-42
2022/03/27 17:36:06;;;;;;;9.55;4.65;;;;;;;13.71;58.58;101544.28;4992224;28;20108;-42
2022/03/27 17:38:32;;;;;;;9.90;4.65;;;;;;;13.67;58.66;101553.78;4995926;28;20136;-43
2022/03/27 17:40:59;;;;;;;10.15;4.47;;;;;;;13.62;58.63;101540.69;4991043;28;20054;-44
2022/03/27 17:43:26;;;;;;;11.13;4.30;;;;;;;13.57;58.85;101537.19;4994823;28;20063;-44
2022/03/27 17:45:53;;;;;;;9.70;4.60;;;;;;;13.53;59.00;101538.03;4992504;28;20104;-44
2022/03/27 17:48:21;;;;;;;10.25;5.20;;;;;;;13.50;58.21;101532.78;4989604;28;20149;-43
2022/03/27 17:50:47;;;;;;;9.27;4.70;;;;;;;13.46;59.31;101544.88;4990699;28;20050;-45
2022/03/27 17:53:14;;;;;;;10.98;5.18;;;;;;;13.46;58.64;101538.78;4991321;28;20045;-45
2022/03/27 17:55:41;;;;;;;11.82;4.80;;;;;;;13.41;59.13;101536.16;4994178;28;20097;-43
2022/03/27 17:58:08;;;;;;;10.40;5.32;;;;;;;13.39;59.28;101539.59;4992404;28;20049;-44